sensor_id;sensor_type;location;lat;lon;timestamp;P1;durP1;ratioP1;P2;durP2;ratioP2
49131;SDS011;35149;51.196;6.204;2023-05-10T00:00:27;11.25;;;7.38;;
49131;SDS011;35149;51.196;6.204;2023-05-10T00:02:54;8.93;;;7.60;;
49131;SDS011;35149;51.196;6.204;2023-05-10T00:05:21;7.97;;;7.18;;
49131;SDS011;35149;51.196;6.204;2023-05-10T00:07:47;9.48;;;7.18;;
49131;SDS011;35149;51.196;6.204;2023-05-10T00:10:14;8.52;;;7.63;;
49131;SDS011;35149;51.196;6.204;2023-05-10T00:12:41;9.48;;;7.60;;
49131;SDS011;35149;51.196;6.204;2023-05-10T00:15:11;9.82;;;7.82;;
49131;SDS011;35149;51.196;6.204;2023-05-10T00:17:38;7.93;;;7.13;;
49131;SDS011;35149;51.196;6.204;2023-05-10T00:20:05;9.18;;;7.80;;
49131;SDS011;35149;51.196;6.204;2023-05-10T00:22:38;10.13;;;7.90;;
49131;SDS011;35149;51.196;6.204;2023-05-10T00:25:05;8.77;;;6.95;;
49131;SDS011;35149;51.196;6.204;2023-05-10T00:27:35;7.25;;;5.93;;
49131;SDS011;35149;51.196;6.204;2023-05-10T00:30:02;8.30;;;6.82;;
49131;SDS011;35149;51.196;6.204;2023-05-10T00:32:29;7.65;;;6.25;;
49131;SDS011;35149;51.196;6.204;2023-05-10T00:34:59;6.00;;;5.40;;
49131;SDS011;35149;51.196;6.204;2023-05-10T00:37:28;7.28;;;5.72;;
49131;SDS011;35149;51.196;6.204;2023-05-10T00:39:55;6.03;;;5.32;;
49131;SDS011;35149;51.196;6.204;2023-05-10T00:42:21;5.15;;;4.65;;
49131;SDS011;35149;51.196;6.204;2023-05-10T00:44:53;5.35;;;4.85;;
49131;SDS011;35149;51.196;6.204;2023-05-10T00:47:22;5.25;;;4.75;;
49131;SDS011;35149;51.196;6.204;2023-05-10T00:49:53;5.63;;;4.90;;
49131;SDS011;35149;51.196;6.204;2023-05-10T00:52:21;6.80;;;5.28;;
49131;SDS011;35149;51.196;6.204;2023-05-10T00:54:50;6.32;;;4.47;;
49131;SDS011;35149;51.196;6.204;2023-05-10T00:57:23;4.75;;;4.35;;
49131;SDS011;35149;51.196;6.204;2023-05-10T00:59:50;5.38;;;4.75;;
49131;SDS011;35149;51.196;6.204;2023-05-10T01:02:20;5.97;;;5.25;;
49131;SDS011;35149;51.196;6.204;2023-05-10T01:04:49;6.68;;;5.30;;
49131;SDS011;35149;51.196;6.204;2023-05-10T01:07:18;5.37;;;4.70;;
49131;SDS011;35149;51.196;6.204;2023-05-10T01:09:50;7.55;;;6.22;;
49131;SDS011;35149;51.196;6.204;2023-05-10T01:12:20;8.75;;;6.22;;
49131;SDS011;35149;51.196;6.204;2023-05-10T01:14:57;8.35;;;6.72;;
49131;SDS011;35149;51.196;6.204;2023-05-10T01:17:24;8.25;;;6.95;;
49131;SDS011;35149;51.196;6.204;2023-05-10T01:19:50;8.25;;;7.25;;
49131;SDS011;35149;51.196;6.204;2023-05-10T01:22:25;7.38;;;6.65;;
49131;SDS011;35149;51.196;6.204;2023-05-10T01:25:06;7.03;;;6.07;;
49131;SDS011;35149;51.196;6.204;2023-05-10T01:36:13;7.60;;;6.25;;
49131;SDS011;35149;51.196;6.204;2023-05-10T01:39:11;7.75;;;6.68;;
49131;SDS011;35149;51.196;6.204;2023-05-10T01:41:49;7.63;;;6.65;;
49131;SDS011;35149;51.196;6.204;2023-05-10T01:47:20;8.15;;;5.88;;
49131;SDS011;35149;51.196;6.204;2023-05-10T01:49:56;6.85;;;5.47;;
49131;SDS011;35149;51.196;6.204;2023-05-10T01:52:32;6.70;;;5.70;;
49131;SDS011;35149;51.196;6.204;2023-05-10T01:55:07;7.03;;;6.32;;
49131;SDS011;35149;51.196;6.204;2023-05-10T01:57:39;9.52;;;7.38;;
49131;SDS011;35149;51.196;6.204;2023-05-10T02:00:08;8.52;;;7.30;;
49131;SDS011;35149;51.196;6.204;2023-05-10T02:02:40;10.57;;;7.83;;
49131;SDS011;35149;51.196;6.204;2023-05-10T02:05:15;11.00;;;9.05;;
49131;SDS011;35149;51.196;6.204;2023-05-10T02:07:43;11.48;;;8.80;;
49131;SDS011;35149;51.196;6.204;2023-05-10T02:10:13;10.60;;;8.65;;
49131;SDS011;35149;51.196;6.204;2023-05-10T02:12:42;11.43;;;8.55;;
49131;SDS011;35149;51.196;6.204;2023-05-10T02:15:12;8.43;;;7.22;;
49131;SDS011;35149;51.196;6.204;2023-05-10T02:17:43;10.68;;;8.75;;
49131;SDS011;35149;51.196;6.204;2023-05-10T02:20:13;11.48;;;9.00;;
49131;SDS011;35149;51.196;6.204;2023-05-10T02:22:45;11.15;;;9.48;;
49131;SDS011;35149;51.196;6.204;2023-05-10T02:25:15;10.88;;;8.60;;
49131;SDS011;35149;51.196;6.204;2023-05-10T02:27:46;11.32;;;8.85;;
49131;SDS011;35149;51.196;6.204;2023-05-10T02:30:18;12.45;;;9.52;;
49131;SDS011;35149;51.196;6.204;2023-05-10T02:32:51;11.43;;;9.50;;
49131;SDS011;35149;51.196;6.204;2023-05-10T02:35:25;14.13;;;9.85;;
49131;SDS011;35149;51.196;6.204;2023-05-10T02:37:53;14.95;;;10.65;;
49131;SDS011;35149;51.196;6.204;2023-05-10T02:40:21;14.68;;;10.07;;
49131;SDS011;35149;51.196;6.204;2023-05-10T02:42:58;14.80;;;10.60;;
49131;SDS011;35149;51.196;6.204;2023-05-10T02:45:53;12.30;;;9.57;;
49131;SDS011;35149;51.196;6.204;2023-05-10T02:48:20;14.25;;;11.50;;
49131;SDS011;35149;51.196;6.204;2023-05-10T02:50:47;17.35;;;12.27;;
49131;SDS011;35149;51.196;6.204;2023-05-10T02:53:36;14.18;;;11.45;;
49131;SDS011;35149;51.196;6.204;2023-05-10T02:56:12;19.10;;;13.55;;
49131;SDS011;35149;51.196;6.204;2023-05-10T02:58:43;17.23;;;12.40;;
49131;SDS011;35149;51.196;6.204;2023-05-10T03:01:10;16.65;;;12.55;;
49131;SDS011;35149;51.196;6.204;2023-05-10T03:03:37;16.80;;;12.23;;
49131;SDS011;35149;51.196;6.204;2023-05-10T03:06:12;19.67;;;12.73;;
49131;SDS011;35149;51.196;6.204;2023-05-10T03:08:39;17.73;;;13.05;;
49131;SDS011;35149;51.196;6.204;2023-05-10T03:17:19;16.05;;;12.20;;
49131;SDS011;35149;51.196;6.204;2023-05-10T03:19:35;18.63;;;13.77;;
49131;SDS011;35149;51.196;6.204;2023-05-10T03:22:10;20.40;;;13.25;;
49131;SDS011;35149;51.196;6.204;2023-05-10T03:24:39;21.00;;;12.93;;
49131;SDS011;35149;51.196;6.204;2023-05-10T03:27:09;18.38;;;12.82;;
49131;SDS011;35149;51.196;6.204;2023-05-10T03:29:38;21.40;;;13.45;;
49131;SDS011;35149;51.196;6.204;2023-05-10T03:32:06;19.52;;;13.50;;
49131;SDS011;35149;51.196;6.204;2023-05-10T03:34:36;17.95;;;13.93;;
49131;SDS011;35149;51.196;6.204;2023-05-10T03:37:13;18.88;;;13.10;;
49131;SDS011;35149;51.196;6.204;2023-05-10T03:39:40;16.58;;;12.63;;
49131;SDS011;35149;51.196;6.204;2023-05-10T03:42:08;16.70;;;13.18;;
49131;SDS011;35149;51.196;6.204;2023-05-10T03:44:40;19.58;;;13.23;;
49131;SDS011;35149;51.196;6.204;2023-05-10T03:47:07;16.70;;;12.05;;
49131;SDS011;35149;51.196;6.204;2023-05-10T03:49:34;15.95;;;12.88;;
49131;SDS011;35149;51.196;6.204;2023-05-10T03:52:03;14.65;;;12.15;;
49131;SDS011;35149;51.196;6.204;2023-05-10T03:54:33;16.00;;;11.18;;
49131;SDS011;35149;51.196;6.204;2023-05-10T03:57:02;14.48;;;12.10;;
49131;SDS011;35149;51.196;6.204;2023-05-10T03:59:33;16.30;;;11.02;;
49131;SDS011;35149;51.196;6.204;2023-05-10T04:02:03;13.07;;;11.05;;
49131;SDS011;35149;51.196;6.204;2023-05-10T04:04:29;13.85;;;10.52;;
49131;SDS011;35149;51.196;6.204;2023-05-10T04:06:57;12.82;;;9.98;;
49131;SDS011;35149;51.196;6.204;2023-05-10T04:09:23;14.25;;;10.00;;
49131;SDS011;35149;51.196;6.204;2023-05-10T04:11:51;15.02;;;10.48;;
49131;SDS011;35149;51.196;6.204;2023-05-10T04:14:20;12.57;;;9.73;;
49131;SDS011;35149;51.196;6.204;2023-05-10T04:16:53;12.18;;;8.68;;
49131;SDS011;35149;51.196;6.204;2023-05-10T04:19:19;12.50;;;8.98;;
49131;SDS011;35149;51.196;6.204;2023-05-10T04:21:53;12.10;;;9.68;;
49131;SDS011;35149;51.196;6.204;2023-05-10T04:24:32;14.27;;;10.18;;
49131;SDS011;35149;51.196;6.204;2023-05-10T04:27:00;10.85;;;8.70;;
49131;SDS011;35149;51.196;6.204;2023-05-10T04:29:29;16.00;;;9.48;;
49131;SDS011;35149;51.196;6.204;2023-05-10T04:32:01;16.35;;;10.18;;
49131;SDS011;35149;51.196;6.204;2023-05-10T04:34:30;12.25;;;8.30;;
49131;SDS011;35149;51.196;6.204;2023-05-10T04:36:59;13.25;;;9.30;;
49131;SDS011;35149;51.196;6.204;2023-05-10T04:39:29;12.85;;;9.55;;
49131;SDS011;35149;51.196;6.204;2023-05-10T04:41:57;13.30;;;8.73;;
49131;SDS011;35149;51.196;6.204;2023-05-10T04:44:26;12.85;;;9.10;;
49131;SDS011;35149;51.196;6.204;2023-05-10T04:46:53;13.05;;;10.50;;
49131;SDS011;35149;51.196;6.204;2023-05-10T04:49:20;12.32;;;9.43;;
49131;SDS011;35149;51.196;6.204;2023-05-10T04:51:47;15.50;;;9.52;;
49131;SDS011;35149;51.196;6.204;2023-05-10T04:54:14;14.77;;;9.60;;
49131;SDS011;35149;51.196;6.204;2023-05-10T04:56:41;14.40;;;9.65;;
49131;SDS011;35149;51.196;6.204;2023-05-10T04:59:07;13.13;;;10.25;;
49131;SDS011;35149;51.196;6.204;2023-05-10T05:01:34;13.65;;;9.73;;
49131;SDS011;35149;51.196;6.204;2023-05-10T05:04:00;15.90;;;10.18;;
49131;SDS011;35149;51.196;6.204;2023-05-10T05:06:27;16.95;;;11.02;;
49131;SDS011;35149;51.196;6.204;2023-05-10T05:08:54;13.65;;;10.75;;
49131;SDS011;35149;51.196;6.204;2023-05-10T05:11:20;14.82;;;10.60;;
49131;SDS011;35149;51.196;6.204;2023-05-10T05:13:47;15.32;;;10.70;;
49131;SDS011;35149;51.196;6.204;2023-05-10T05:16:14;14.35;;;10.32;;
49131;SDS011;35149;51.196;6.204;2023-05-10T05:18:41;16.35;;;11.35;;
49131;SDS011;35149;51.196;6.204;2023-05-10T05:21:14;15.38;;;10.98;;
49131;SDS011;35149;51.196;6.204;2023-05-10T05:23:45;19.88;;;11.15;;
49131;SDS011;35149;51.196;6.204;2023-05-10T05:26:12;20.27;;;12.02;;
49131;SDS011;35149;51.196;6.204;2023-05-10T05:28:39;16.33;;;10.82;;
49131;SDS011;35149;51.196;6.204;2023-05-10T05:31:06;18.95;;;11.73;;
49131;SDS011;35149;51.196;6.204;2023-05-10T05:33:36;22.23;;;13.15;;
49131;SDS011;35149;51.196;6.204;2023-05-10T05:36:03;19.98;;;12.32;;
49131;SDS011;35149;51.196;6.204;2023-05-10T05:38:31;18.73;;;12.30;;
49131;SDS011;35149;51.196;6.204;2023-05-10T05:40:58;21.13;;;13.38;;
49131;SDS011;35149;51.196;6.204;2023-05-10T05:43:24;18.73;;;11.32;;
49131;SDS011;35149;51.196;6.204;2023-05-10T05:45:52;19.30;;;11.82;;
49131;SDS011;35149;51.196;6.204;2023-05-10T05:48:20;18.65;;;12.75;;
49131;SDS011;35149;51.196;6.204;2023-05-10T05:50:46;20.08;;;13.50;;
49131;SDS011;35149;51.196;6.204;2023-05-10T05:53:13;19.48;;;12.77;;
49131;SDS011;35149;51.196;6.204;2023-05-10T05:55:40;21.02;;;13.20;;
49131;SDS011;35149;51.196;6.204;2023-05-10T05:58:16;15.95;;;11.57;;
49131;SDS011;35149;51.196;6.204;2023-05-10T06:00:43;16.33;;;11.98;;
49131;SDS011;35149;51.196;6.204;2023-05-10T06:03:09;20.50;;;12.60;;
49131;SDS011;35149;51.196;6.204;2023-05-10T06:05:36;14.70;;;10.57;;
49131;SDS011;35149;51.196;6.204;2023-05-10T06:08:03;15.15;;;11.57;;
49131;SDS011;35149;51.196;6.204;2023-05-10T06:10:30;17.80;;;11.90;;
49131;SDS011;35149;51.196;6.204;2023-05-10T06:12:56;18.02;;;12.85;;
49131;SDS011;35149;51.196;6.204;2023-05-10T06:15:23;20.67;;;14.40;;
49131;SDS011;35149;51.196;6.204;2023-05-10T06:17:49;20.63;;;14.95;;
49131;SDS011;35149;51.196;6.204;2023-05-10T06:20:17;22.10;;;14.70;;
49131;SDS011;35149;51.196;6.204;2023-05-10T06:22:43;22.35;;;14.70;;
49131;SDS011;35149;51.196;6.204;2023-05-10T06:25:10;22.95;;;16.13;;
49131;SDS011;35149;51.196;6.204;2023-05-10T06:27:37;25.00;;;14.85;;
49131;SDS011;35149;51.196;6.204;2023-05-10T06:30:04;21.85;;;14.93;;
49131;SDS011;35149;51.196;6.204;2023-05-10T06:32:40;19.75;;;13.32;;
49131;SDS011;35149;51.196;6.204;2023-05-10T06:35:07;22.30;;;15.38;;
49131;SDS011;35149;51.196;6.204;2023-05-10T06:37:34;19.35;;;14.93;;
49131;SDS011;35149;51.196;6.204;2023-05-10T06:40:01;23.80;;;15.20;;
49131;SDS011;35149;51.196;6.204;2023-05-10T06:42:27;22.38;;;14.77;;
49131;SDS011;35149;51.196;6.204;2023-05-10T06:44:54;20.45;;;14.27;;
49131;SDS011;35149;51.196;6.204;2023-05-10T06:47:21;24.83;;;16.60;;
49131;SDS011;35149;51.196;6.204;2023-05-10T06:49:48;25.48;;;16.73;;
49131;SDS011;35149;51.196;6.204;2023-05-10T06:52:14;24.23;;;16.30;;
49131;SDS011;35149;51.196;6.204;2023-05-10T06:54:41;25.60;;;16.40;;
49131;SDS011;35149;51.196;6.204;2023-05-10T06:57:08;26.55;;;18.10;;
49131;SDS011;35149;51.196;6.204;2023-05-10T06:59:54;29.80;;;19.45;;
49131;SDS011;35149;51.196;6.204;2023-05-10T07:02:22;28.92;;;18.33;;
49131;SDS011;35149;51.196;6.204;2023-05-10T07:04:49;26.85;;;18.00;;
49131;SDS011;35149;51.196;6.204;2023-05-10T07:07:16;29.13;;;18.67;;
49131;SDS011;35149;51.196;6.204;2023-05-10T07:09:43;27.27;;;18.52;;
49131;SDS011;35149;51.196;6.204;2023-05-10T07:12:12;31.35;;;18.33;;
49131;SDS011;35149;51.196;6.204;2023-05-10T07:14:41;30.30;;;18.38;;
49131;SDS011;35149;51.196;6.204;2023-05-10T07:17:08;32.35;;;18.58;;
49131;SDS011;35149;51.196;6.204;2023-05-10T07:19:35;25.58;;;16.67;;
49131;SDS011;35149;51.196;6.204;2023-05-10T07:22:02;28.27;;;18.95;;
49131;SDS011;35149;51.196;6.204;2023-05-10T07:24:28;27.85;;;18.45;;
49131;SDS011;35149;51.196;6.204;2023-05-10T07:26:57;28.63;;;18.45;;
49131;SDS011;35149;51.196;6.204;2023-05-10T07:29:23;26.25;;;17.20;;
49131;SDS011;35149;51.196;6.204;2023-05-10T07:31:50;26.48;;;18.33;;
49131;SDS011;35149;51.196;6.204;2023-05-10T07:34:16;26.30;;;16.75;;
49131;SDS011;35149;51.196;6.204;2023-05-10T07:36:43;26.70;;;17.42;;
49131;SDS011;35149;51.196;6.204;2023-05-10T07:39:10;23.95;;;16.50;;
49131;SDS011;35149;51.196;6.204;2023-05-10T07:41:43;25.10;;;16.63;;
49131;SDS011;35149;51.196;6.204;2023-05-10T07:44:10;26.55;;;14.75;;
49131;SDS011;35149;51.196;6.204;2023-05-10T07:46:36;21.77;;;15.95;;
49131;SDS011;35149;51.196;6.204;2023-05-10T07:49:03;22.10;;;16.05;;
49131;SDS011;35149;51.196;6.204;2023-05-10T07:51:30;21.88;;;14.88;;
49131;SDS011;35149;51.196;6.204;2023-05-10T07:53:57;21.77;;;14.23;;
49131;SDS011;35149;51.196;6.204;2023-05-10T07:56:28;17.27;;;11.70;;
49131;SDS011;35149;51.196;6.204;2023-05-10T07:58:59;19.27;;;13.27;;
49131;SDS011;35149;51.196;6.204;2023-05-10T08:01:26;17.25;;;13.82;;
49131;SDS011;35149;51.196;6.204;2023-05-10T08:03:56;16.33;;;11.98;;
49131;SDS011;35149;51.196;6.204;2023-05-10T08:06:22;16.30;;;11.60;;
49131;SDS011;35149;51.196;6.204;2023-05-10T08:08:49;16.25;;;11.10;;
49131;SDS011;35149;51.196;6.204;2023-05-10T08:11:17;14.95;;;11.20;;
49131;SDS011;35149;51.196;6.204;2023-05-10T08:13:47;15.38;;;11.27;;
49131;SDS011;35149;51.196;6.204;2023-05-10T08:16:15;15.80;;;11.07;;
49131;SDS011;35149;51.196;6.204;2023-05-10T08:18:43;16.55;;;12.35;;
49131;SDS011;35149;51.196;6.204;2023-05-10T08:21:11;14.38;;;10.50;;
49131;SDS011;35149;51.196;6.204;2023-05-10T08:23:38;14.43;;;10.18;;
49131;SDS011;35149;51.196;6.204;2023-05-10T08:26:04;15.30;;;10.80;;
49131;SDS011;35149;51.196;6.204;2023-05-10T08:28:31;14.23;;;10.43;;
49131;SDS011;35149;51.196;6.204;2023-05-10T08:30:58;17.73;;;10.98;;
49131;SDS011;35149;51.196;6.204;2023-05-10T08:33:24;16.45;;;10.52;;
49131;SDS011;35149;51.196;6.204;2023-05-10T08:35:51;15.82;;;10.52;;
49131;SDS011;35149;51.196;6.204;2023-05-10T08:38:18;12.57;;;9.43;;
49131;SDS011;35149;51.196;6.204;2023-05-10T08:40:45;12.23;;;9.98;;
49131;SDS011;35149;51.196;6.204;2023-05-10T08:43:13;13.27;;;9.85;;
49131;SDS011;35149;51.196;6.204;2023-05-10T08:45:44;13.35;;;9.90;;
49131;SDS011;35149;51.196;6.204;2023-05-10T08:48:14;13.82;;;10.07;;
49131;SDS011;35149;51.196;6.204;2023-05-10T08:50:43;13.98;;;11.38;;
49131;SDS011;35149;51.196;6.204;2023-05-10T08:53:12;16.38;;;11.80;;
49131;SDS011;35149;51.196;6.204;2023-05-10T08:55:40;19.65;;;13.45;;
49131;SDS011;35149;51.196;6.204;2023-05-10T08:58:08;21.58;;;13.82;;
49131;SDS011;35149;51.196;6.204;2023-05-10T09:00:36;18.25;;;13.43;;
49131;SDS011;35149;51.196;6.204;2023-05-10T09:03:03;19.95;;;14.05;;
49131;SDS011;35149;51.196;6.204;2023-05-10T09:05:31;21.58;;;14.02;;
49131;SDS011;35149;51.196;6.204;2023-05-10T09:07:58;21.33;;;14.75;;
49131;SDS011;35149;51.196;6.204;2023-05-10T09:10:26;20.15;;;14.40;;
49131;SDS011;35149;51.196;6.204;2023-05-10T09:12:55;19.92;;;14.20;;
49131;SDS011;35149;51.196;6.204;2023-05-10T09:15:24;19.02;;;14.18;;
49131;SDS011;35149;51.196;6.204;2023-05-10T09:17:51;21.98;;;15.95;;
49131;SDS011;35149;51.196;6.204;2023-05-10T09:20:18;19.33;;;14.20;;
49131;SDS011;35149;51.196;6.204;2023-05-10T09:22:45;22.38;;;15.10;;
49131;SDS011;35149;51.196;6.204;2023-05-10T09:25:13;20.85;;;15.75;;
49131;SDS011;35149;51.196;6.204;2023-05-10T09:27:44;19.63;;;14.43;;
49131;SDS011;35149;51.196;6.204;2023-05-10T09:30:16;21.48;;;14.45;;
49131;SDS011;35149;51.196;6.204;2023-05-10T09:32:48;20.98;;;14.65;;
49131;SDS011;35149;51.196;6.204;2023-05-10T09:35:17;20.75;;;13.63;;
49131;SDS011;35149;51.196;6.204;2023-05-10T09:37:46;21.40;;;14.20;;
49131;SDS011;35149;51.196;6.204;2023-05-10T09:40:15;22.23;;;15.88;;
49131;SDS011;35149;51.196;6.204;2023-05-10T09:42:53;19.98;;;14.50;;
49131;SDS011;35149;51.196;6.204;2023-05-10T09:45:23;21.25;;;14.55;;
49131;SDS011;35149;51.196;6.204;2023-05-10T09:47:50;19.77;;;13.82;;
49131;SDS011;35149;51.196;6.204;2023-05-10T09:50:18;20.25;;;14.27;;
49131;SDS011;35149;51.196;6.204;2023-05-10T09:55:14;21.30;;;14.52;;
49131;SDS011;35149;51.196;6.204;2023-05-10T09:57:44;18.80;;;13.10;;
49131;SDS011;35149;51.196;6.204;2023-05-10T10:00:15;22.38;;;15.02;;
49131;SDS011;35149;51.196;6.204;2023-05-10T10:02:44;19.38;;;15.35;;
49131;SDS011;35149;51.196;6.204;2023-05-10T10:05:27;18.90;;;14.00;;
49131;SDS011;35149;51.196;6.204;2023-05-10T10:07:55;20.77;;;15.57;;
49131;SDS011;35149;51.196;6.204;2023-05-10T10:10:26;18.98;;;13.35;;
49131;SDS011;35149;51.196;6.204;2023-05-10T10:12:54;17.98;;;13.75;;
49131;SDS011;35149;51.196;6.204;2023-05-10T10:15:22;19.52;;;13.63;;
49131;SDS011;35149;51.196;6.204;2023-05-10T10:17:49;15.65;;;12.95;;
49131;SDS011;35149;51.196;6.204;2023-05-10T10:20:19;20.90;;;13.77;;
49131;SDS011;35149;51.196;6.204;2023-05-10T10:22:48;24.58;;;16.50;;
49131;SDS011;35149;51.196;6.204;2023-05-10T10:25:15;18.85;;;14.13;;
49131;SDS011;35149;51.196;6.204;2023-05-10T10:30:34;19.52;;;14.38;;
49131;SDS011;35149;51.196;6.204;2023-05-10T10:36:00;22.02;;;14.63;;
49131;SDS011;35149;51.196;6.204;2023-05-10T10:49:27;20.05;;;15.27;;
49131;SDS011;35149;51.196;6.204;2023-05-10T10:52:13;22.63;;;16.48;;
49131;SDS011;35149;51.196;6.204;2023-05-10T10:55:04;22.08;;;16.30;;
49131;SDS011;35149;51.196;6.204;2023-05-10T10:57:45;18.70;;;14.85;;
49131;SDS011;35149;51.196;6.204;2023-05-10T11:03:10;20.88;;;15.93;;
49131;SDS011;35149;51.196;6.204;2023-05-10T11:05:45;20.42;;;15.52;;
49131;SDS011;35149;51.196;6.204;2023-05-10T11:08:28;20.65;;;15.48;;
49131;SDS011;35149;51.196;6.204;2023-05-10T11:13:27;19.95;;;15.15;;
49131;SDS011;35149;51.196;6.204;2023-05-10T11:15:54;19.10;;;14.35;;
49131;SDS011;35149;51.196;6.204;2023-05-10T11:18:24;20.15;;;15.27;;
49131;SDS011;35149;51.196;6.204;2023-05-10T11:26:07;20.48;;;14.80;;
49131;SDS011;35149;51.196;6.204;2023-05-10T11:28:41;17.17;;;13.73;;
49131;SDS011;35149;51.196;6.204;2023-05-10T11:31:08;20.17;;;14.55;;
49131;SDS011;35149;51.196;6.204;2023-05-10T11:33:42;20.75;;;15.75;;
49131;SDS011;35149;51.196;6.204;2023-05-10T11:36:16;20.45;;;14.45;;
49131;SDS011;35149;51.196;6.204;2023-05-10T11:38:45;21.60;;;15.73;;
49131;SDS011;35149;51.196;6.204;2023-05-10T11:41:13;17.33;;;13.80;;
49131;SDS011;35149;51.196;6.204;2023-05-10T11:43:41;16.40;;;12.52;;
49131;SDS011;35149;51.196;6.204;2023-05-10T11:46:11;14.05;;;11.00;;
49131;SDS011;35149;51.196;6.204;2023-05-10T11:48:39;13.75;;;10.88;;
49131;SDS011;35149;51.196;6.204;2023-05-10T11:51:10;13.07;;;11.10;;
49131;SDS011;35149;51.196;6.204;2023-05-10T11:53:37;15.13;;;11.60;;
49131;SDS011;35149;51.196;6.204;2023-05-10T11:56:07;15.00;;;10.77;;
49131;SDS011;35149;51.196;6.204;2023-05-10T11:58:36;14.05;;;11.82;;
49131;SDS011;35149;51.196;6.204;2023-05-10T12:01:04;13.73;;;11.07;;
49131;SDS011;35149;51.196;6.204;2023-05-10T12:03:32;14.00;;;11.48;;
49131;SDS011;35149;51.196;6.204;2023-05-10T12:06:00;12.77;;;10.45;;
49131;SDS011;35149;51.196;6.204;2023-05-10T12:08:28;11.85;;;9.27;;
49131;SDS011;35149;51.196;6.204;2023-05-10T12:11:04;11.73;;;9.70;;
49131;SDS011;35149;51.196;6.204;2023-05-10T12:13:39;12.48;;;9.05;;
49131;SDS011;35149;51.196;6.204;2023-05-10T12:16:17;11.95;;;9.55;;
49131;SDS011;35149;51.196;6.204;2023-05-10T12:18:53;10.30;;;9.15;;
49131;SDS011;35149;51.196;6.204;2023-05-10T12:21:22;11.73;;;10.02;;
49131;SDS011;35149;51.196;6.204;2023-05-10T12:23:50;11.15;;;8.45;;
49131;SDS011;35149;51.196;6.204;2023-05-10T12:26:22;13.35;;;8.95;;
49131;SDS011;35149;51.196;6.204;2023-05-10T12:28:54;12.07;;;8.55;;
49131;SDS011;35149;51.196;6.204;2023-05-10T12:31:21;10.20;;;8.63;;
49131;SDS011;35149;51.196;6.204;2023-05-10T12:33:48;9.23;;;8.07;;
49131;SDS011;35149;51.196;6.204;2023-05-10T12:36:15;11.00;;;9.20;;
49131;SDS011;35149;51.196;6.204;2023-05-10T12:38:44;9.35;;;8.32;;
49131;SDS011;35149;51.196;6.204;2023-05-10T12:41:15;8.73;;;7.82;;
49131;SDS011;35149;51.196;6.204;2023-05-10T12:43:43;8.98;;;7.70;;
49131;SDS011;35149;51.196;6.204;2023-05-10T12:46:15;9.25;;;6.97;;
49131;SDS011;35149;51.196;6.204;2023-05-10T12:48:43;7.60;;;6.47;;
49131;SDS011;35149;51.196;6.204;2023-05-10T12:51:11;7.63;;;5.93;;
49131;SDS011;35149;51.196;6.204;2023-05-10T12:53:41;8.23;;;7.40;;
49131;SDS011;35149;51.196;6.204;2023-05-10T12:56:11;7.07;;;6.18;;
49131;SDS011;35149;51.196;6.204;2023-05-10T12:58:38;7.32;;;6.43;;
49131;SDS011;35149;51.196;6.204;2023-05-10T13:01:04;8.40;;;6.07;;
49131;SDS011;35149;51.196;6.204;2023-05-10T13:03:31;5.88;;;5.35;;
49131;SDS011;35149;51.196;6.204;2023-05-10T13:05:58;7.53;;;6.68;;
49131;SDS011;35149;51.196;6.204;2023-05-10T13:08:25;6.47;;;5.72;;
49131;SDS011;35149;51.196;6.204;2023-05-10T13:10:51;6.50;;;5.90;;
49131;SDS011;35149;51.196;6.204;2023-05-10T13:13:18;7.25;;;5.32;;
49131;SDS011;35149;51.196;6.204;2023-05-10T13:15:45;6.60;;;6.00;;
49131;SDS011;35149;51.196;6.204;2023-05-10T13:18:11;6.60;;;5.93;;
49131;SDS011;35149;51.196;6.204;2023-05-10T13:20:38;5.82;;;5.25;;
49131;SDS011;35149;51.196;6.204;2023-05-10T13:23:05;6.20;;;5.60;;
49131;SDS011;35149;51.196;6.204;2023-05-10T13:25:31;6.32;;;5.72;;
49131;SDS011;35149;51.196;6.204;2023-05-10T13:28:00;6.97;;;6.28;;
49131;SDS011;35149;51.196;6.204;2023-05-10T13:30:26;7.20;;;6.47;;
49131;SDS011;35149;51.196;6.204;2023-05-10T13:32:54;7.30;;;6.57;;
49131;SDS011;35149;51.196;6.204;2023-05-10T13:35:21;7.35;;;6.65;;
49131;SDS011;35149;51.196;6.204;2023-05-10T13:37:48;6.55;;;5.90;;
49131;SDS011;35149;51.196;6.204;2023-05-10T13:40:17;8.32;;;6.70;;
49131;SDS011;35149;51.196;6.204;2023-05-10T13:42:44;8.43;;;6.80;;
49131;SDS011;35149;51.196;6.204;2023-05-10T13:45:10;7.30;;;6.55;;
49131;SDS011;35149;51.196;6.204;2023-05-10T13:47:38;7.38;;;6.18;;
49131;SDS011;35149;51.196;6.204;2023-05-10T13:50:05;7.03;;;6.32;;
49131;SDS011;35149;51.196;6.204;2023-05-10T13:52:32;7.63;;;6.93;;
49131;SDS011;35149;51.196;6.204;2023-05-10T13:54:59;7.70;;;6.75;;
49131;SDS011;35149;51.196;6.204;2023-05-10T13:57:28;8.40;;;6.80;;
49131;SDS011;35149;51.196;6.204;2023-05-10T13:59:56;7.10;;;6.47;;
49131;SDS011;35149;51.196;6.204;2023-05-10T14:02:23;6.80;;;5.82;;
49131;SDS011;35149;51.196;6.204;2023-05-10T14:04:50;7.75;;;7.05;;
49131;SDS011;35149;51.196;6.204;2023-05-10T14:07:17;7.60;;;6.18;;
49131;SDS011;35149;51.196;6.204;2023-05-10T14:09:44;6.45;;;5.82;;
49131;SDS011;35149;51.196;6.204;2023-05-10T14:12:11;7.72;;;6.63;;
49131;SDS011;35149;51.196;6.204;2023-05-10T14:14:37;7.53;;;6.18;;
49131;SDS011;35149;51.196;6.204;2023-05-10T14:17:04;7.00;;;6.30;;
49131;SDS011;35149;51.196;6.204;2023-05-10T14:19:31;6.75;;;6.05;;
49131;SDS011;35149;51.196;6.204;2023-05-10T14:22:00;8.35;;;6.10;;
49131;SDS011;35149;51.196;6.204;2023-05-10T14:24:26;7.43;;;5.97;;
49131;SDS011;35149;51.196;6.204;2023-05-10T14:26:53;6.25;;;5.65;;
49131;SDS011;35149;51.196;6.204;2023-05-10T14:29:20;5.63;;;4.95;;
49131;SDS011;35149;51.196;6.204;2023-05-10T14:31:47;5.85;;;5.05;;
49131;SDS011;35149;51.196;6.204;2023-05-10T14:34:14;5.57;;;4.90;;
49131;SDS011;35149;51.196;6.204;2023-05-10T14:36:40;6.60;;;5.35;;
49131;SDS011;35149;51.196;6.204;2023-05-10T14:39:07;6.63;;;6.03;;
49131;SDS011;35149;51.196;6.204;2023-05-10T14:41:36;9.13;;;5.95;;
49131;SDS011;35149;51.196;6.204;2023-05-10T14:44:03;7.18;;;6.00;;
49131;SDS011;35149;51.196;6.204;2023-05-10T14:46:29;6.60;;;6.00;;
49131;SDS011;35149;51.196;6.204;2023-05-10T14:48:56;8.50;;;6.45;;
49131;SDS011;35149;51.196;6.204;2023-05-10T14:51:23;7.20;;;5.72;;
49131;SDS011;35149;51.196;6.204;2023-05-10T14:53:50;7.75;;;6.95;;
49131;SDS011;35149;51.196;6.204;2023-05-10T14:56:16;8.20;;;6.45;;
49131;SDS011;35149;51.196;6.204;2023-05-10T14:58:43;7.10;;;6.40;;
49131;SDS011;35149;51.196;6.204;2023-05-10T15:01:10;7.43;;;6.45;;
49131;SDS011;35149;51.196;6.204;2023-05-10T15:03:37;8.30;;;6.85;;
49131;SDS011;35149;51.196;6.204;2023-05-10T15:06:05;6.70;;;5.82;;
49131;SDS011;35149;51.196;6.204;2023-05-10T15:08:31;5.70;;;5.10;;
49131;SDS011;35149;51.196;6.204;2023-05-10T15:10:58;5.90;;;5.28;;
49131;SDS011;35149;51.196;6.204;2023-05-10T15:13:25;6.57;;;5.50;;
49131;SDS011;35149;51.196;6.204;2023-05-10T15:15:51;6.57;;;5.85;;
49131;SDS011;35149;51.196;6.204;2023-05-10T15:18:18;6.32;;;5.72;;
49131;SDS011;35149;51.196;6.204;2023-05-10T15:20:45;6.63;;;6.03;;
49131;SDS011;35149;51.196;6.204;2023-05-10T15:23:11;6.75;;;5.00;;
49131;SDS011;35149;51.196;6.204;2023-05-10T15:25:38;7.72;;;5.53;;
49131;SDS011;35149;51.196;6.204;2023-05-10T15:28:05;7.38;;;5.43;;